createdAt,value
2023-06-10T00:00:47.722Z,14.97
2023-06-10T00:03:16.640Z,15.10
2023-06-10T00:05:44.411Z,14.43
2023-06-10T00:08:12.146Z,15.37
2023-06-10T00:10:40.161Z,15.10
2023-06-10T00:13:12.303Z,15.47
2023-06-10T00:15:40.363Z,14.37
2023-06-10T00:18:11.143Z,15.43
2023-06-10T00:20:41.950Z,15.13
2023-06-10T00:23:09.638Z,15.70
2023-06-10T00:25:36.984Z,14.60
2023-06-10T00:28:04.237Z,14.80
2023-06-10T00:30:31.519Z,14.20
2023-06-10T00:32:59.368Z,14.57
2023-06-10T00:35:27.666Z,16.77
2023-06-10T00:37:54.930Z,14.80
2023-06-10T00:40:22.186Z,14.93
2023-06-10T00:42:49.695Z,14.37
2023-06-10T00:45:17.092Z,14.93
2023-06-10T00:47:44.947Z,16.97
2023-06-10T00:50:13.325Z,13.20
2023-06-10T00:52:41.512Z,14.87
2023-06-10T00:55:10.428Z,13.80
2023-06-10T00:57:38.925Z,14.27
2023-06-10T01:00:09.024Z,14.00
2023-06-10T01:02:36.705Z,14.70
2023-06-10T01:05:04.754Z,13.73
2023-06-10T01:07:32.653Z,14.43
2023-06-10T01:10:08.383Z,14.73
2023-06-10T01:12:39.628Z,12.50
2023-06-10T01:15:08.919Z,14.30
2023-06-10T01:17:39.957Z,13.40
2023-06-10T01:20:13.242Z,13.37
2023-06-10T01:22:40.953Z,14.33
2023-06-10T01:25:09.078Z,13.90
2023-06-10T01:27:40.745Z,13.67
2023-06-10T01:30:18.921Z,13.93
2023-06-10T01:32:47.902Z,14.17
2023-06-10T01:35:18.011Z,14.73
2023-06-10T01:37:47.941Z,14.17
2023-06-10T01:40:16.132Z,13.37
2023-06-10T01:42:44.143Z,15.27
2023-06-10T01:45:13.235Z,14.57
2023-06-10T01:47:40.884Z,16.23
2023-06-10T01:50:08.722Z,14.33
2023-06-10T01:52:38.778Z,13.30
2023-06-10T01:55:07.189Z,13.53
2023-06-10T01:57:34.996Z,14.57
2023-06-10T02:00:02.523Z,15.63
2023-06-10T02:02:30.396Z,15.13
2023-06-10T02:04:58.230Z,14.20
2023-06-10T02:07:25.884Z,15.27
2023-06-10T02:09:53.690Z,14.47
2023-06-10T02:12:21.531Z,13.80
2023-06-10T02:14:49.242Z,14.03
2023-06-10T02:17:16.572Z,12.67
2023-06-10T02:19:44.374Z,14.07
2023-06-10T02:22:12.306Z,13.80
2023-06-10T02:24:39.844Z,13.77
2023-06-10T02:27:07.751Z,13.17
2023-06-10T02:29:38.284Z,13.27
2023-06-10T02:32:08.211Z,13.00
2023-06-10T02:34:37.667Z,14.13
2023-06-10T02:37:06.320Z,14.63
2023-06-10T02:39:34.430Z,13.23
2023-06-10T02:42:04.143Z,13.67
2023-06-10T02:44:31.900Z,12.73
2023-06-10T02:46:59.572Z,13.17
2023-06-10T02:49:30.639Z,13.60
2023-06-10T02:51:58.314Z,13.17
2023-06-10T02:54:26.033Z,12.97
2023-06-10T02:56:56.826Z,13.00
2023-06-10T02:59:28.076Z,12.63
2023-06-10T03:01:55.865Z,13.20
2023-06-10T03:04:26.640Z,14.40
2023-06-10T03:07:04.589Z,14.10
2023-06-10T03:09:35.005Z,13.17
2023-06-10T03:12:04.154Z,13.00
2023-06-10T03:14:37.178Z,14.70
2023-06-10T03:17:05.901Z,15.00
2023-06-10T03:19:34.801Z,13.27
2023-06-10T03:22:09.606Z,13.30
2023-06-10T03:24:41.617Z,13.10
2023-06-10T03:27:12.294Z,13.73
2023-06-10T03:29:42.240Z,13.73
2023-06-10T03:32:10.715Z,14.60
2023-06-10T03:34:40.056Z,13.00
2023-06-10T03:37:08.091Z,13.47
2023-06-10T03:39:35.618Z,13.17
2023-06-10T03:42:03.980Z,13.00
2023-06-10T03:44:33.261Z,12.83
2023-06-10T03:47:01.198Z,12.73
2023-06-10T03:49:30.702Z,14.23
2023-06-10T03:52:01.974Z,14.77
2023-06-10T03:54:33.219Z,14.00
2023-06-10T03:57:01.526Z,14.37
2023-06-10T03:59:29.794Z,11.50
2023-06-10T04:01:57.178Z,13.27
2023-06-10T04:04:25.276Z,14.13
2023-06-10T04:06:52.730Z,13.17
2023-06-10T04:09:21.215Z,13.00
2023-06-10T04:11:49.136Z,13.63
2023-06-10T04:14:16.746Z,13.37
2023-06-10T04:16:44.994Z,12.80
2023-06-10T04:19:13.938Z,12.67
2023-06-10T04:21:41.432Z,15.03
2023-06-10T04:24:09.212Z,13.77
2023-06-10T04:26:37.975Z,12.77
2023-06-10T04:29:05.787Z,12.80
2023-06-10T04:31:33.465Z,12.70
2023-06-10T04:34:02.401Z,15.23
2023-06-10T04:36:31.217Z,12.23
2023-06-10T04:38:58.688Z,13.10
2023-06-10T04:41:28.566Z,12.07
2023-06-10T04:43:56.392Z,15.77
2023-06-10T04:46:24.202Z,11.40
2023-06-10T04:48:51.996Z,11.67
2023-06-10T04:51:22.386Z,12.17
2023-06-10T04:53:50.241Z,11.77
2023-06-10T04:56:17.940Z,12.07
2023-06-10T04:58:45.563Z,10.57
2023-06-10T05:01:13.036Z,12.40
2023-06-10T05:03:40.543Z,10.50
2023-06-10T05:06:08.022Z,12.47
2023-06-10T05:08:35.529Z,10.40
2023-06-10T05:11:03.007Z,12.57
2023-06-10T05:13:30.713Z,11.97
2023-06-10T05:15:58.490Z,11.17
2023-06-10T05:18:26.640Z,11.70
2023-06-10T05:20:55.008Z,13.53
2023-06-10T05:23:22.676Z,11.20
2023-06-10T05:25:50.745Z,10.93
2023-06-10T05:28:19.702Z,11.70
2023-06-10T05:30:47.355Z,11.47
2023-06-10T05:33:15.600Z,11.00
2023-06-10T05:35:43.205Z,10.53
2023-06-10T05:38:10.953Z,12.03
2023-06-10T05:40:38.421Z,11.30
2023-06-10T05:43:05.773Z,12.07
2023-06-10T05:45:33.109Z,11.43
2023-06-10T05:48:01.443Z,11.80
2023-06-10T05:50:29.093Z,11.70
2023-06-10T05:52:57.773Z,11.47
2023-06-10T05:55:25.427Z,11.00
2023-06-10T05:58:00.906Z,12.77
2023-06-10T06:00:28.507Z,10.87
2023-06-10T06:02:56.620Z,10.73
2023-06-10T06:05:23.978Z,12.50
2023-06-10T06:07:51.597Z,11.60
2023-06-10T06:10:19.662Z,11.57
2023-06-10T06:12:47.093Z,11.10
2023-06-10T06:15:14.416Z,12.07
2023-06-10T06:17:42.220Z,12.23
2023-06-10T06:20:10.205Z,11.80
2023-06-10T06:22:37.727Z,11.80
2023-06-10T06:25:05.269Z,12.47
2023-06-10T06:27:33.024Z,11.73
2023-06-10T06:30:01.075Z,12.27
2023-06-10T06:32:29.490Z,10.87
2023-06-10T06:34:57.087Z,10.97
2023-06-10T06:37:26.464Z,11.93
2023-06-10T06:40:06.249Z,11.60
2023-06-10T06:42:34.900Z,10.83
2023-06-10T06:45:11.397Z,12.67
2023-06-10T06:47:39.212Z,11.53
2023-06-10T06:50:07.964Z,11.40
2023-06-10T06:52:35.337Z,12.10
2023-06-10T06:55:03.150Z,11.80
2023-06-10T06:57:30.832Z,12.70
2023-06-10T06:59:58.528Z,12.27
2023-06-10T07:02:26.657Z,13.10
2023-06-10T07:04:56.629Z,11.27
2023-06-10T07:07:24.255Z,13.10
2023-06-10T07:09:52.767Z,11.43
2023-06-10T07:12:23.358Z,12.50
2023-06-10T07:14:50.928Z,11.77
2023-06-10T07:17:19.024Z,12.00
2023-06-10T07:19:47.334Z,11.80
2023-06-10T07:22:15.980Z,11.80
2023-06-10T07:24:43.328Z,11.40
2023-06-10T07:27:11.270Z,12.87
2023-06-10T07:29:38.541Z,11.60
2023-06-10T07:32:06.108Z,12.20
2023-06-10T07:34:33.484Z,11.80
2023-06-10T07:37:01.065Z,13.67
2023-06-10T07:39:28.420Z,13.37
2023-06-10T07:41:57.953Z,14.17
2023-06-10T07:44:27.063Z,12.40
2023-06-10T07:46:54.488Z,13.80
2023-06-10T07:49:21.830Z,11.87
2023-06-10T07:51:49.714Z,12.30
2023-06-10T07:54:18.066Z,13.07
2023-06-10T07:56:45.504Z,12.20
2023-06-10T07:59:13.861Z,12.87
2023-06-10T08:01:41.493Z,12.33
2023-06-10T08:04:10.031Z,13.20
2023-06-10T08:06:37.784Z,12.50
2023-06-10T08:09:05.516Z,12.97
2023-06-10T08:11:32.824Z,14.60
2023-06-10T08:14:00.134Z,14.33
2023-06-10T08:16:27.455Z,12.40
2023-06-10T08:18:55.946Z,13.03
2023-06-10T08:21:23.356Z,12.87
2023-06-10T08:23:54.457Z,12.90
2023-06-10T08:26:22.155Z,13.13
2023-06-10T08:28:49.505Z,14.30
2023-06-10T08:31:16.846Z,12.97
2023-06-10T08:33:44.291Z,13.13
2023-06-10T08:36:11.840Z,11.90
2023-06-10T08:38:39.406Z,13.70
2023-06-10T08:41:07.923Z,14.80
2023-06-10T08:43:35.337Z,12.83
2023-06-10T08:46:03.329Z,12.37
2023-06-10T08:48:32.490Z,13.13
2023-06-10T08:51:01.542Z,13.70
2023-06-10T08:53:30.475Z,13.60
2023-06-10T08:56:01.342Z,13.10
2023-06-10T08:58:29.049Z,12.60
2023-06-10T09:00:59.088Z,12.67
2023-06-10T09:03:27.041Z,12.30
2023-06-10T09:05:54.895Z,11.93
2023-06-10T09:08:22.532Z,16.57
2023-06-10T09:10:50.295Z,11.40
2023-06-10T09:13:19.742Z,11.70
2023-06-10T09:15:47.281Z,13.00
2023-06-10T09:18:17.454Z,11.97
2023-06-10T09:20:46.339Z,12.67
2023-06-10T09:23:13.985Z,11.77
2023-06-10T09:25:41.728Z,11.97
2023-06-10T09:28:17.019Z,12.23
2023-06-10T09:30:44.456Z,12.20
2023-06-10T09:33:16.217Z,13.30
2023-06-10T09:35:52.966Z,11.60
2023-06-10T09:38:22.777Z,11.97
2023-06-10T09:40:53.999Z,13.03
2023-06-10T09:43:23.913Z,13.03
2023-06-10T09:45:54.499Z,12.57
2023-06-10T09:48:25.465Z,12.53
2023-06-10T09:50:54.933Z,11.80
2023-06-10T09:53:22.643Z,13.07
2023-06-10T09:55:50.002Z,11.30
2023-06-10T09:58:18.640Z,12.80
2023-06-10T10:00:46.347Z,11.80
2023-06-10T10:03:24.081Z,12.37
2023-06-10T10:05:52.923Z,12.20
2023-06-10T10:08:21.543Z,12.87
2023-06-10T10:10:48.957Z,11.50
2023-06-10T10:13:17.419Z,10.43
2023-06-10T10:15:45.984Z,12.63
2023-06-10T10:18:17.624Z,11.57
2023-06-10T10:20:51.436Z,11.77
2023-06-10T10:23:23.287Z,12.83
2023-06-10T10:25:53.455Z,11.90
2023-06-10T10:28:23.702Z,11.53
2023-06-10T10:30:51.716Z,11.10
2023-06-10T10:33:20.947Z,11.27
2023-06-10T10:35:49.793Z,10.27
2023-06-10T10:38:17.882Z,11.27
2023-06-10T10:40:48.514Z,10.73
2023-06-10T10:43:17.489Z,12.50
2023-06-10T10:45:48.380Z,10.20
2023-06-10T10:48:16.413Z,11.73
2023-06-10T10:50:43.995Z,10.80
2023-06-10T10:53:11.479Z,15.50
2023-06-10T10:55:38.873Z,10.37
2023-06-10T10:58:07.152Z,11.30
2023-06-10T11:00:35.468Z,10.17
2023-06-10T11:03:06.729Z,10.23
2023-06-10T11:05:40.094Z,11.30
2023-06-10T11:08:08.799Z,10.97
2023-06-10T11:10:43.096Z,10.33
2023-06-10T11:13:15.214Z,10.73
2023-06-10T11:15:48.205Z,12.07
2023-06-10T11:18:17.909Z,12.60
2023-06-10T11:20:52.338Z,10.03
2023-06-10T11:23:29.218Z,11.20
2023-06-10T11:26:16.420Z,12.00
2023-06-10T11:28:49.881Z,12.10
2023-06-10T11:31:27.808Z,12.60
2023-06-10T11:33:56.053Z,11.30
2023-06-10T11:36:23.764Z,11.17
2023-06-10T11:38:51.799Z,10.70
2023-06-10T11:41:19.332Z,10.23
2023-06-10T11:43:47.897Z,10.67
2023-06-10T11:46:16.177Z,10.77
2023-06-10T11:48:56.811Z,10.20
2023-06-10T11:51:26.778Z,10.03
2023-06-10T11:53:54.758Z,10.10
2023-06-10T11:56:22.691Z,10.20
2023-06-10T11:58:58.295Z,9.70
2023-06-10T12:01:29.929Z,11.07
2023-06-10T12:04:08.034Z,9.77
2023-06-10T12:06:47.491Z,10.23
2023-06-10T12:09:28.723Z,10.87
2023-06-10T12:12:00.713Z,10.27
2023-06-10T12:14:48.551Z,11.77
2023-06-10T12:17:17.331Z,10.97
2023-06-10T12:19:44.886Z,9.87
2023-06-10T12:22:12.408Z,11.73
2023-06-10T12:24:47.352Z,10.53
2023-06-10T12:27:14.998Z,10.17
2023-06-10T12:29:56.574Z,34.80
2023-06-10T12:32:36.585Z,31.23
2023-06-10T12:35:08.402Z,18.23
2023-06-10T12:37:42.336Z,10.27
2023-06-10T12:40:10.988Z,16.97
2023-06-10T12:42:38.968Z,21.90
2023-06-10T12:45:12.562Z,13.30
2023-06-10T12:47:40.717Z,15.90
2023-06-10T12:50:09.052Z,10.00
2023-06-10T12:52:36.587Z,10.57
2023-06-10T12:55:06.143Z,11.00
2023-06-10T12:57:33.660Z,10.90
2023-06-10T13:00:05.473Z,10.17
2023-06-10T13:02:34.425Z,9.90
2023-06-10T13:05:03.686Z,11.23
2023-06-10T13:07:31.773Z,10.27
2023-06-10T13:09:59.056Z,10.00
2023-06-10T13:12:38.283Z,9.70
2023-06-10T13:15:14.073Z,10.10
2023-06-10T13:17:41.361Z,9.60
2023-06-10T13:20:10.078Z,9.23
2023-06-10T13:22:37.644Z,9.80
2023-06-10T13:25:06.157Z,8.97
2023-06-10T13:27:33.962Z,9.40
2023-06-10T13:30:01.671Z,8.70
2023-06-10T13:32:29.007Z,9.23
2023-06-10T13:34:56.293Z,9.93
2023-06-10T13:37:23.771Z,8.80
2023-06-10T13:39:51.955Z,10.43
2023-06-10T13:42:19.571Z,10.63
2023-06-10T13:44:48.305Z,10.20
2023-06-10T13:47:18.041Z,9.07
2023-06-10T13:49:47.428Z,9.27
2023-06-10T13:52:14.716Z,8.50
2023-06-10T13:54:42.006Z,8.20
2023-06-10T13:57:11.007Z,8.50
2023-06-10T13:59:38.858Z,7.80
2023-06-10T14:02:06.425Z,7.63
2023-06-10T14:04:33.774Z,10.23
2023-06-10T14:07:01.694Z,9.30
2023-06-10T14:09:29.713Z,8.13
2023-06-10T14:11:57.069Z,9.37
2023-06-10T14:14:24.678Z,9.43
2023-06-10T14:16:51.954Z,7.90
2023-06-10T14:19:19.182Z,8.07
2023-06-10T14:21:46.472Z,9.03
2023-06-10T14:24:15.957Z,8.33
2023-06-10T14:26:44.364Z,11.13
2023-06-10T14:29:11.633Z,8.10
2023-06-10T14:31:39.001Z,7.37
2023-06-10T14:34:08.654Z,7.03
2023-06-10T14:36:36.392Z,7.47
2023-06-10T14:39:05.332Z,7.80
2023-06-10T14:41:33.760Z,7.20
2023-06-10T14:44:01.179Z,7.40
2023-06-10T14:46:30.807Z,7.50
2023-06-10T14:49:00.213Z,7.10
2023-06-10T14:51:27.551Z,7.60
2023-06-10T14:53:54.829Z,7.20
2023-06-10T14:56:22.047Z,8.27
2023-06-10T14:58:49.350Z,8.40
2023-06-10T15:01:17.303Z,8.87
2023-06-10T15:03:47.482Z,7.27
2023-06-10T15:06:18.429Z,8.17
2023-06-10T15:08:46.293Z,8.33
2023-06-10T15:11:13.592Z,7.97
2023-06-10T15:13:40.878Z,6.90
2023-06-10T15:16:08.174Z,7.87
2023-06-10T15:18:35.493Z,7.50
2023-06-10T15:21:03.176Z,7.90
2023-06-10T15:23:30.415Z,7.50
2023-06-10T15:25:58.084Z,7.20
2023-06-10T15:28:28.251Z,8.47
2023-06-10T15:30:56.080Z,8.30
2023-06-10T15:33:23.425Z,7.80
2023-06-10T15:35:51.105Z,7.83
2023-06-10T15:38:18.352Z,9.03
2023-06-10T15:40:46.020Z,8.13
2023-06-10T15:43:14.536Z,8.53
2023-06-10T15:45:41.853Z,8.70
2023-06-10T15:48:09.137Z,9.97
2023-06-10T15:50:36.420Z,8.27
2023-06-10T15:53:03.676Z,11.23
2023-06-10T15:55:30.949Z,9.00
2023-06-10T15:58:01.096Z,8.97
2023-06-10T16:00:28.442Z,8.97
2023-06-10T16:02:55.981Z,8.23
2023-06-10T16:05:23.327Z,7.93
2023-06-10T16:07:50.674Z,8.13
2023-06-10T16:10:17.969Z,8.00
2023-06-10T16:12:45.323Z,7.60
2023-06-10T16:15:12.775Z,9.57
2023-06-10T16:17:40.244Z,8.50
2023-06-10T16:20:07.826Z,8.10
2023-06-10T16:22:35.061Z,8.40
2023-06-10T16:25:02.333Z,8.10
2023-06-10T16:27:29.638Z,8.63
2023-06-10T16:29:57.002Z,8.87
2023-06-10T16:32:24.330Z,8.10
2023-06-10T16:34:51.883Z,9.10
2023-06-10T16:37:19.171Z,9.43
2023-06-10T16:39:46.538Z,8.00
2023-06-10T16:42:14.054Z,8.70
2023-06-10T16:44:42.312Z,9.07
2023-06-10T16:47:09.649Z,9.93
2023-06-10T16:49:37.612Z,9.50
2023-06-10T16:52:06.096Z,8.50
2023-06-10T16:54:34.582Z,10.33
2023-06-10T16:57:02.287Z,8.60
2023-06-10T16:59:29.619Z,8.17
2023-06-10T17:01:56.913Z,10.60
2023-06-10T17:04:24.181Z,9.10
2023-06-10T17:06:51.495Z,9.67
2023-06-10T17:09:18.814Z,8.40
2023-06-10T17:11:46.041Z,9.00
2023-06-10T17:14:13.484Z,11.10
2023-06-10T17:16:41.863Z,9.33
2023-06-10T17:19:09.192Z,10.00
2023-06-10T17:21:37.546Z,9.50
2023-06-10T17:24:06.098Z,16.47
2023-06-10T17:26:33.479Z,15.93
2023-06-10T17:29:02.997Z,10.63
2023-06-10T17:31:31.176Z,14.00
2023-06-10T17:33:58.518Z,10.87
2023-06-10T17:36:26.092Z,12.40
2023-06-10T17:38:53.355Z,12.00
2023-06-10T17:41:20.594Z,11.07
2023-06-10T17:43:47.933Z,10.90
2023-06-10T17:46:18.296Z,13.03
2023-06-10T17:48:45.629Z,11.00
2023-06-10T17:51:12.914Z,12.13
2023-06-10T17:53:40.433Z,10.93
2023-06-10T17:56:07.839Z,10.73
2023-06-10T17:58:35.274Z,12.33
2023-06-10T18:01:02.539Z,12.47
2023-06-10T18:03:29.994Z,11.07
2023-06-10T18:05:57.413Z,12.47
2023-06-10T18:08:24.659Z,11.93
2023-06-10T18:10:52.084Z,11.10
2023-06-10T18:13:19.501Z,10.67
2023-06-10T18:15:46.884Z,11.50
2023-06-10T18:18:14.281Z,10.40
2023-06-10T18:20:41.591Z,11.70
2023-06-10T18:23:08.819Z,11.97
2023-06-10T18:25:36.153Z,12.20
2023-06-10T18:28:03.486Z,10.73
2023-06-10T18:30:30.751Z,10.93
2023-06-10T18:32:58.576Z,10.27
2023-06-10T18:35:25.913Z,10.57
2023-06-10T18:37:53.205Z,10.77
2023-06-10T18:40:20.787Z,10.73
2023-06-10T18:42:48.023Z,10.90
2023-06-10T18:45:15.383Z,10.23
2023-06-10T18:47:56.947Z,10.90
2023-06-10T18:50:25.868Z,12.70
2023-06-10T18:52:53.663Z,10.90
2023-06-10T18:55:21.976Z,10.83
2023-06-10T18:57:49.230Z,11.00
2023-06-10T19:00:16.925Z,10.97
2023-06-10T19:02:44.328Z,11.10
2023-06-10T19:05:13.722Z,11.10
2023-06-10T19:07:41.315Z,12.03
2023-06-10T19:10:08.804Z,10.00
2023-06-10T19:12:36.160Z,10.23
2023-06-10T19:15:05.689Z,10.63
2023-06-10T19:17:33.435Z,11.40
2023-06-10T19:20:01.004Z,11.90
2023-06-10T19:22:29.425Z,11.10
2023-06-10T19:25:08.533Z,11.20
2023-06-10T19:27:36.747Z,10.80
2023-06-10T19:30:04.830Z,10.30
2023-06-10T19:32:32.422Z,11.97
2023-06-10T19:35:01.092Z,13.03
2023-06-10T19:37:28.641Z,11.07
2023-06-10T19:39:56.247Z,11.40
2023-06-10T19:42:25.058Z,11.13
2023-06-10T19:44:52.372Z,11.50
2023-06-10T19:47:19.738Z,11.60
2023-06-10T19:49:47.170Z,11.13
2023-06-10T19:52:14.500Z,11.20
2023-06-10T19:54:43.815Z,10.20
2023-06-10T19:57:11.169Z,11.10
2023-06-10T19:59:38.453Z,11.10
2023-06-10T20:02:05.920Z,10.70
2023-06-10T20:04:35.235Z,10.73
2023-06-10T20:07:02.533Z,11.70
2023-06-10T20:09:31.701Z,10.10
2023-06-10T20:12:00.170Z,10.47
2023-06-10T20:14:29.277Z,10.40
2023-06-10T20:16:56.825Z,11.97
2023-06-10T20:19:24.072Z,10.80
2023-06-10T20:21:51.556Z,11.40
2023-06-10T20:24:19.214Z,12.50
2023-06-10T20:26:48.616Z,11.20
2023-06-10T20:29:16.219Z,11.60
2023-06-10T20:31:46.841Z,12.33
2023-06-10T20:34:14.617Z,11.73
2023-06-10T20:36:42.270Z,12.00
2023-06-10T20:39:09.937Z,11.97
2023-06-10T20:41:38.112Z,12.50
2023-06-10T20:44:06.398Z,13.07
2023-06-10T20:46:34.734Z,13.87
2023-06-10T20:49:02.174Z,11.60
2023-06-10T20:51:31.574Z,12.43
2023-06-10T20:53:59.464Z,11.80
2023-06-10T20:56:27.807Z,11.17
2023-06-10T20:58:55.220Z,10.10
2023-06-10T21:01:26.082Z,11.20
2023-06-10T21:03:54.777Z,11.67
2023-06-10T21:06:23.210Z,10.77
2023-06-10T21:08:50.543Z,12.40
2023-06-10T21:11:17.927Z,11.67
2023-06-10T21:13:49.324Z,11.30
2023-06-10T21:16:16.626Z,11.57
2023-06-10T21:18:46.241Z,12.33
2023-06-10T21:21:13.523Z,11.87
2023-06-10T21:23:42.352Z,12.07
2023-06-10T21:26:09.933Z,10.47
2023-06-10T21:28:37.579Z,11.60
2023-06-10T21:31:05.073Z,12.90
2023-06-10T21:33:32.532Z,11.30
2023-06-10T21:36:00.797Z,11.10
2023-06-10T21:38:28.507Z,12.17
2023-06-10T21:40:56.051Z,12.47
2023-06-10T21:43:24.632Z,11.80
2023-06-10T21:45:55.526Z,12.00
2023-06-10T21:48:25.609Z,11.50
2023-06-10T21:50:53.355Z,11.57
2023-06-10T21:53:20.835Z,11.53
2023-06-10T21:55:48.120Z,12.17
2023-06-10T21:58:15.517Z,11.23
2023-06-10T22:00:43.779Z,11.40
2023-06-10T22:03:11.225Z,11.17
2023-06-10T22:05:38.590Z,11.60
2023-06-10T22:08:06.215Z,12.30
2023-06-10T22:10:34.658Z,12.53
2023-06-10T22:13:02.000Z,10.90
2023-06-10T22:15:29.778Z,12.10
2023-06-10T22:17:57.124Z,11.63
2023-06-10T22:20:26.951Z,11.53
2023-06-10T22:22:54.189Z,12.97
2023-06-10T22:25:21.458Z,12.33
2023-06-10T22:27:49.842Z,12.63
2023-06-10T22:30:17.196Z,12.07
2023-06-10T22:32:44.506Z,12.20
2023-06-10T22:35:12.587Z,11.97
2023-06-10T22:37:40.182Z,12.30
2023-06-10T22:40:07.755Z,12.77
2023-06-10T22:42:36.178Z,12.57
2023-06-10T22:45:03.565Z,12.10
2023-06-10T22:47:33.988Z,12.50
2023-06-10T22:50:04.380Z,13.40
2023-06-10T22:52:32.645Z,12.63
2023-06-10T22:55:00.002Z,12.57
2023-06-10T22:57:27.260Z,12.33
2023-06-10T22:59:54.564Z,12.70
2023-06-10T23:02:22.517Z,12.10
2023-06-10T23:04:49.984Z,12.00
2023-06-10T23:07:21.716Z,10.93
2023-06-10T23:09:50.598Z,11.87
2023-06-10T23:12:18.107Z,11.67
2023-06-10T23:14:45.784Z,10.73
2023-06-10T23:17:16.881Z,11.63
2023-06-10T23:19:44.455Z,11.30
2023-06-10T23:22:12.634Z,12.17
2023-06-10T23:24:44.642Z,12.13
2023-06-10T23:27:14.325Z,11.63
2023-06-10T23:29:52.129Z,12.60
2023-06-10T23:32:34.505Z,14.87
2023-06-10T23:35:03.578Z,11.97
2023-06-10T23:37:31.988Z,11.60
2023-06-10T23:39:59.893Z,12.10
2023-06-10T23:42:29.875Z,11.13
2023-06-10T23:44:57.388Z,11.50
2023-06-10T23:47:26.863Z,12.43
2023-06-10T23:49:54.635Z,10.90
2023-06-10T23:52:22.670Z,11.00
2023-06-10T23:54:51.052Z,10.50
2023-06-10T23:57:19.661Z,11.30
2023-06-10T23:59:47.256Z,12.30
